createdAt,value
2018-10-16T00:00:10.292Z,15.60
2018-10-16T00:02:39.023Z,15.73
2018-10-16T00:05:07.902Z,15.40
2018-10-16T00:07:36.672Z,17.03
2018-10-16T00:10:06.921Z,15.50
2018-10-16T00:12:35.630Z,16.20
2018-10-16T00:15:04.607Z,18.43
2018-10-16T00:17:33.270Z,17.40
2018-10-16T00:20:01.933Z,15.23
2018-10-16T00:22:30.575Z,15.07
2018-10-16T00:24:59.218Z,18.13
2018-10-16T00:27:27.870Z,13.93
2018-10-16T00:29:56.491Z,15.23
2018-10-16T00:32:25.138Z,16.30
2018-10-16T00:34:53.790Z,18.60
2018-10-16T00:37:22.626Z,15.23
2018-10-16T00:39:51.259Z,20.83
2018-10-16T00:42:19.917Z,14.37
2018-10-16T00:44:48.559Z,15.00
2018-10-16T00:47:17.191Z,17.27
2018-10-16T00:49:45.807Z,22.73
2018-10-16T00:52:14.443Z,15.13
2018-10-16T00:54:43.130Z,16.33
2018-10-16T00:57:11.711Z,19.77
2018-10-16T00:59:40.390Z,15.60
2018-10-16T01:02:09.048Z,16.53
2018-10-16T01:04:37.716Z,16.83
2018-10-16T01:07:06.375Z,16.70
2018-10-16T01:09:35.093Z,16.47
2018-10-16T01:12:03.739Z,16.67
2018-10-16T01:14:32.398Z,16.40
2018-10-16T01:17:01.113Z,15.33
2018-10-16T01:19:29.826Z,18.53
2018-10-16T01:21:58.501Z,17.50
2018-10-16T01:24:27.123Z,15.57
2018-10-16T01:26:55.759Z,17.07
2018-10-16T01:29:24.532Z,18.63
2018-10-16T01:31:53.163Z,17.53
2018-10-16T01:34:21.833Z,18.50
2018-10-16T01:36:50.485Z,20.80
2018-10-16T01:39:19.105Z,19.00
2018-10-16T01:41:47.723Z,17.00
2018-10-16T01:44:16.383Z,19.20
2018-10-16T01:46:45.016Z,16.13
2018-10-16T01:49:13.713Z,17.30
2018-10-16T01:51:42.310Z,24.83
2018-10-16T01:54:10.968Z,15.77
2018-10-16T01:56:39.637Z,16.53
2018-10-16T01:59:08.261Z,16.77
2018-10-16T02:01:36.870Z,17.93
2018-10-16T02:04:05.551Z,20.30
2018-10-16T02:06:34.262Z,17.37
2018-10-16T02:09:02.907Z,18.33
2018-10-16T02:11:31.570Z,20.73
2018-10-16T02:14:00.190Z,17.77
2018-10-16T02:16:29.064Z,19.77
2018-10-16T02:18:57.797Z,20.67
2018-10-16T02:21:26.455Z,18.33
2018-10-16T02:23:55.139Z,17.47
2018-10-16T02:26:24.112Z,18.60
2018-10-16T02:28:52.840Z,18.50
2018-10-16T02:31:21.487Z,21.47
2018-10-16T02:33:50.124Z,18.53
2018-10-16T02:36:18.787Z,18.63
2018-10-16T02:38:47.420Z,20.23
2018-10-16T02:41:16.113Z,20.27
2018-10-16T02:43:44.741Z,20.77
2018-10-16T02:46:13.394Z,18.17
2018-10-16T02:48:42.025Z,19.57
2018-10-16T02:51:10.679Z,18.20
2018-10-16T02:53:39.380Z,19.17
2018-10-16T02:56:08.451Z,18.63
2018-10-16T02:58:37.272Z,21.03
2018-10-16T03:01:06.468Z,18.90
2018-10-16T03:03:37.424Z,19.00
2018-10-16T03:06:06.684Z,18.30
2018-10-16T03:08:35.725Z,18.73
2018-10-16T03:11:04.508Z,19.30
2018-10-16T03:13:33.217Z,17.87
2018-10-16T03:16:01.836Z,18.20
2018-10-16T03:18:30.529Z,22.10
2018-10-16T03:20:59.155Z,20.20
2018-10-16T03:23:27.825Z,19.97
2018-10-16T03:25:56.477Z,18.03
2018-10-16T03:28:25.107Z,23.50
2018-10-16T03:30:53.774Z,19.47
2018-10-16T03:33:22.504Z,17.67
2018-10-16T03:35:51.172Z,23.10
2018-10-16T03:38:19.888Z,20.60
2018-10-16T03:40:48.521Z,22.73
2018-10-16T03:43:17.200Z,22.33
2018-10-16T03:45:45.848Z,27.67
2018-10-16T03:48:14.535Z,19.40
2018-10-16T03:50:43.220Z,21.03
2018-10-16T03:53:11.909Z,22.23
2018-10-16T03:55:40.591Z,22.20
2018-10-16T03:58:09.264Z,20.03
2018-10-16T04:00:37.954Z,22.33
2018-10-16T04:03:06.618Z,22.10
2018-10-16T04:05:35.272Z,21.13
2018-10-16T04:08:03.928Z,19.73
2018-10-16T04:10:32.572Z,19.33
2018-10-16T04:13:01.195Z,20.57
2018-10-16T04:15:29.840Z,20.57
2018-10-16T04:17:58.466Z,21.80
2018-10-16T04:20:27.084Z,23.20
2018-10-16T04:22:55.904Z,23.67
2018-10-16T04:25:25.611Z,21.90
2018-10-16T04:27:54.229Z,19.67
2018-10-16T04:30:22.868Z,21.70
2018-10-16T04:32:51.526Z,21.93
2018-10-16T04:35:20.155Z,22.77
2018-10-16T04:37:48.825Z,20.80
2018-10-16T04:40:18.779Z,20.40
2018-10-16T04:42:47.444Z,19.83
2018-10-16T04:45:16.274Z,19.53
2018-10-16T04:47:45.249Z,20.13
2018-10-16T04:50:13.894Z,21.43
2018-10-16T04:52:42.524Z,21.90
2018-10-16T04:55:11.257Z,21.50
2018-10-16T04:57:39.943Z,23.13
2018-10-16T05:00:09.512Z,23.90
2018-10-16T05:02:40.928Z,22.70
2018-10-16T05:05:16.936Z,22.10
2018-10-16T05:07:45.567Z,22.80
2018-10-16T05:10:14.189Z,21.97
2018-10-16T05:12:42.907Z,21.70
2018-10-16T05:15:16.001Z,24.40
2018-10-16T05:17:44.623Z,21.13
2018-10-16T05:20:13.268Z,22.03
2018-10-16T05:22:41.924Z,23.27
2018-10-16T05:25:10.583Z,20.53
2018-10-16T05:27:39.379Z,22.27
2018-10-16T05:30:08.054Z,22.20
2018-10-16T05:32:36.712Z,21.00
2018-10-16T05:35:05.830Z,22.87
2018-10-16T05:37:34.508Z,23.70
2018-10-16T05:40:03.372Z,21.80
2018-10-16T05:42:32.011Z,23.20
2018-10-16T05:45:00.674Z,24.10
2018-10-16T05:47:29.323Z,22.17
2018-10-16T05:49:57.946Z,23.13
2018-10-16T05:52:26.583Z,23.60
2018-10-16T05:54:55.420Z,24.23
2018-10-16T05:57:24.883Z,22.17
2018-10-16T06:00:05.234Z,23.80
2018-10-16T06:02:34.079Z,21.53
2018-10-16T06:05:02.724Z,23.23
2018-10-16T06:07:32.153Z,22.63
2018-10-16T06:10:01.922Z,22.87
2018-10-16T06:12:30.758Z,26.30
2018-10-16T06:14:59.429Z,23.43
2018-10-16T06:17:28.080Z,23.80
2018-10-16T06:19:56.811Z,28.17
2018-10-16T06:22:25.590Z,24.63
2018-10-16T06:24:54.428Z,22.47
2018-10-16T06:27:23.959Z,21.27
2018-10-16T06:29:53.021Z,23.27
2018-10-16T06:32:22.105Z,22.80
2018-10-16T06:34:50.900Z,25.07
2018-10-16T06:37:19.635Z,23.83
2018-10-16T06:39:48.332Z,27.40
2018-10-16T06:42:16.988Z,22.77
2018-10-16T06:44:45.668Z,28.97
2018-10-16T06:47:14.448Z,25.10
2018-10-16T06:49:43.087Z,25.10
2018-10-16T06:52:11.791Z,25.80
2018-10-16T06:54:40.485Z,23.87
2018-10-16T06:57:09.135Z,23.10
2018-10-16T06:59:38.440Z,23.17
2018-10-16T07:02:07.153Z,21.27
2018-10-16T07:04:35.842Z,22.63
2018-10-16T07:07:04.594Z,23.20
2018-10-16T07:09:33.217Z,21.27
2018-10-16T07:12:01.975Z,24.07
2018-10-16T07:14:30.683Z,21.43
2018-10-16T07:16:59.445Z,23.43
2018-10-16T07:19:28.125Z,25.17
2018-10-16T07:21:56.776Z,31.57
2018-10-16T07:24:26.055Z,26.17
2018-10-16T07:26:54.697Z,24.40
2018-10-16T07:29:23.530Z,25.13
2018-10-16T07:31:52.427Z,23.47
2018-10-16T07:34:21.075Z,23.67
2018-10-16T07:36:49.772Z,22.13
2018-10-16T07:39:18.480Z,29.20
2018-10-16T07:41:47.181Z,23.80
2018-10-16T07:44:15.929Z,22.83
2018-10-16T07:46:44.620Z,23.30
2018-10-16T07:49:13.329Z,24.37
2018-10-16T07:51:42.252Z,23.33
2018-10-16T07:54:11.139Z,24.57
2018-10-16T07:56:39.775Z,25.10
2018-10-16T07:59:08.463Z,23.43
2018-10-16T08:01:37.221Z,25.57
2018-10-16T08:04:06.347Z,23.13
2018-10-16T08:06:35.647Z,26.30
2018-10-16T08:09:07.611Z,24.00
2018-10-16T08:11:37.483Z,23.37
2018-10-16T08:14:06.540Z,29.33
2018-10-16T08:16:35.188Z,23.03
2018-10-16T08:19:03.836Z,22.93
2018-10-16T08:21:32.493Z,24.40
2018-10-16T08:24:01.128Z,24.77
2018-10-16T08:26:29.773Z,25.40
2018-10-16T08:28:58.422Z,22.27
2018-10-16T08:31:27.117Z,23.57
2018-10-16T08:33:55.788Z,21.60
2018-10-16T08:36:24.576Z,22.10
2018-10-16T08:39:01.641Z,23.13
2018-10-16T08:41:33.688Z,20.87
2018-10-16T08:44:33.988Z,20.30
2018-10-16T08:47:13.953Z,20.23
2018-10-16T08:49:53.951Z,21.53
2018-10-16T08:52:22.544Z,21.27
2018-10-16T08:54:51.362Z,21.13
2018-10-16T08:57:19.962Z,24.00
2018-10-16T08:59:48.609Z,19.10
2018-10-16T09:02:17.251Z,20.40
2018-10-16T09:04:45.905Z,21.03
2018-10-16T09:07:14.669Z,20.63
2018-10-16T09:09:43.324Z,22.30
2018-10-16T09:12:11.994Z,19.47
2018-10-16T09:14:40.652Z,20.37
2018-10-16T09:17:09.307Z,19.00
2018-10-16T09:19:37.947Z,19.83
2018-10-16T09:22:06.644Z,22.37
2018-10-16T09:24:35.345Z,21.97
2018-10-16T09:27:03.956Z,23.40
2018-10-16T09:29:32.631Z,23.90
2018-10-16T09:32:01.304Z,23.80
2018-10-16T09:34:29.956Z,20.37
2018-10-16T09:36:58.634Z,22.97
2018-10-16T09:39:27.287Z,19.23
2018-10-16T09:41:55.929Z,20.77
2018-10-16T09:44:24.604Z,20.93
2018-10-16T09:46:53.264Z,22.10
2018-10-16T09:49:21.940Z,20.60
2018-10-16T09:51:50.597Z,21.33
2018-10-16T09:54:19.227Z,21.90
2018-10-16T09:56:47.876Z,19.37
2018-10-16T09:59:17.260Z,18.47
2018-10-16T10:01:47.721Z,18.60
2018-10-16T10:04:16.364Z,19.37
2018-10-16T10:06:45.067Z,20.53
2018-10-16T10:09:13.829Z,20.67
2018-10-16T10:11:42.477Z,18.77
2018-10-16T10:14:11.151Z,20.27
2018-10-16T10:16:40.163Z,18.43
2018-10-16T10:19:08.821Z,20.93
2018-10-16T10:21:37.676Z,19.40
2018-10-16T10:24:06.307Z,18.03
2018-10-16T10:26:34.947Z,18.17
2018-10-16T10:29:03.604Z,18.00
2018-10-16T10:31:32.240Z,17.53
2018-10-16T10:34:00.901Z,19.07
2018-10-16T10:36:29.619Z,19.53
2018-10-16T10:38:58.245Z,17.07
2018-10-16T10:41:26.875Z,19.00
2018-10-16T10:43:55.613Z,18.83
2018-10-16T10:46:24.501Z,19.83
2018-10-16T10:48:53.156Z,23.27
2018-10-16T10:51:22.313Z,19.00
2018-10-16T10:53:50.640Z,17.63
2018-10-16T10:56:19.381Z,19.87
2018-10-16T10:58:48.035Z,18.40
2018-10-16T11:01:16.804Z,21.87
2018-10-16T11:03:45.444Z,18.77
2018-10-16T11:06:15.755Z,24.30
2018-10-16T11:08:44.419Z,19.13
2018-10-16T11:11:13.152Z,17.70
2018-10-16T11:13:41.846Z,19.63
2018-10-16T11:16:11.626Z,19.33
2018-10-16T11:18:40.351Z,19.43
2018-10-16T11:21:09.072Z,19.17
2018-10-16T11:23:38.016Z,21.40
2018-10-16T11:26:06.829Z,19.57
2018-10-16T11:28:35.655Z,20.53
2018-10-16T11:31:04.832Z,19.73
2018-10-16T11:33:33.725Z,19.90
2018-10-16T11:36:02.324Z,20.30
2018-10-16T11:38:31.073Z,20.50
2018-10-16T11:40:59.777Z,21.00
2018-10-16T11:43:28.612Z,21.93
2018-10-16T11:45:57.707Z,21.30
2018-10-16T11:48:27.241Z,22.87
2018-10-16T11:50:56.904Z,21.03
2018-10-16T11:53:25.659Z,21.13
2018-10-16T11:55:54.419Z,22.87
2018-10-16T11:58:23.198Z,21.50
2018-10-16T12:00:52.083Z,25.73
2018-10-16T12:03:20.952Z,27.67
2018-10-16T12:05:49.700Z,21.90
2018-10-16T12:08:18.398Z,22.87
2018-10-16T12:10:47.096Z,27.00
2018-10-16T12:13:16.510Z,23.07
2018-10-16T12:15:45.096Z,21.97
2018-10-16T12:18:54.762Z,20.43
2018-10-16T12:21:24.437Z,23.60
2018-10-16T12:23:53.128Z,22.63
2018-10-16T12:26:22.010Z,21.30
2018-10-16T12:28:50.740Z,20.90
2018-10-16T12:31:19.473Z,22.93
2018-10-16T12:33:49.539Z,21.50
2018-10-16T12:36:18.344Z,21.83
2018-10-16T12:38:47.094Z,20.93
2018-10-16T12:41:16.461Z,21.30
2018-10-16T12:43:48.364Z,23.70
2018-10-16T12:46:21.766Z,20.63
2018-10-16T12:48:52.188Z,23.63
2018-10-16T12:51:20.812Z,24.20
2018-10-16T12:53:49.960Z,23.47
2018-10-16T12:56:19.763Z,24.63
2018-10-16T12:58:48.760Z,24.03
2018-10-16T13:01:17.401Z,25.47
2018-10-16T13:03:46.104Z,28.00
2018-10-16T13:06:15.276Z,27.47
2018-10-16T13:08:51.298Z,28.20
2018-10-16T13:11:20.745Z,27.30
2018-10-16T13:13:49.423Z,26.80
2018-10-16T13:16:19.250Z,26.97
2018-10-16T13:18:48.580Z,25.77
2018-10-16T13:21:18.525Z,26.70
2018-10-16T13:23:47.766Z,35.30
2018-10-16T13:26:17.912Z,36.53
2018-10-16T13:28:46.767Z,80.50
2018-10-16T13:31:15.426Z,85.50
2018-10-16T13:33:44.328Z,87.03
2018-10-16T13:36:13.009Z,39.70
2018-10-16T13:38:41.664Z,74.97
2018-10-16T13:41:10.843Z,164.33
2018-10-16T13:43:39.678Z,48.47
2018-10-16T13:46:08.414Z,70.03
2018-10-16T13:48:36.951Z,67.93
2018-10-16T13:51:05.612Z,65.07
2018-10-16T13:53:34.314Z,49.27
2018-10-16T13:56:02.973Z,38.90
2018-10-16T13:58:31.654Z,40.97
2018-10-16T14:01:00.344Z,52.20
2018-10-16T14:03:29.008Z,36.67
2018-10-16T14:05:57.770Z,33.00
2018-10-16T14:08:26.462Z,31.80
2018-10-16T14:10:55.104Z,30.90
2018-10-16T14:13:23.721Z,29.03
2018-10-16T14:15:52.409Z,48.77
2018-10-16T14:18:21.048Z,64.07
2018-10-16T14:20:49.671Z,88.93
2018-10-16T14:23:18.366Z,103.90
2018-10-16T14:25:47.135Z,73.40
2018-10-16T14:28:15.888Z,46.33
2018-10-16T14:30:44.526Z,70.23
2018-10-16T14:33:13.501Z,84.47
2018-10-16T14:35:42.296Z,48.57
2018-10-16T14:38:11.057Z,28.00
2018-10-16T14:40:39.728Z,37.30
2018-10-16T14:43:08.305Z,40.33
2018-10-16T14:45:37.083Z,32.57
2018-10-16T14:48:05.959Z,26.80
2018-10-16T14:50:34.673Z,26.77
2018-10-16T14:53:03.339Z,26.00
2018-10-16T14:55:32.082Z,23.57
2018-10-16T14:58:00.783Z,25.57
2018-10-16T15:00:29.936Z,26.17
2018-10-16T15:02:58.741Z,27.13
2018-10-16T15:05:27.380Z,32.07
2018-10-16T15:07:56.099Z,32.27
2018-10-16T15:10:24.786Z,27.73
2018-10-16T15:12:53.403Z,29.83
2018-10-16T15:15:22.247Z,26.40
2018-10-16T15:17:51.684Z,29.60
2018-10-16T15:20:21.725Z,26.70
2018-10-16T15:22:50.359Z,29.97
2018-10-16T15:25:19.071Z,26.50
2018-10-16T15:27:47.797Z,28.37
2018-10-16T15:30:16.461Z,32.20
2018-10-16T15:32:45.305Z,26.00
2018-10-16T15:35:13.936Z,25.87
2018-10-16T15:37:42.625Z,25.53
2018-10-16T15:40:11.860Z,28.83
2018-10-16T15:42:41.185Z,30.00
2018-10-16T15:45:11.277Z,27.60
2018-10-16T15:47:40.698Z,24.67
2018-10-16T15:50:10.048Z,29.90
2018-10-16T15:52:39.019Z,28.10
2018-10-16T15:55:08.569Z,25.03
2018-10-16T15:57:37.303Z,26.30
2018-10-16T16:00:09.287Z,37.43
2018-10-16T16:02:37.949Z,31.23
2018-10-16T16:05:06.750Z,28.27
2018-10-16T16:07:35.499Z,28.07
2018-10-16T16:10:04.546Z,26.70
2018-10-16T16:12:33.243Z,28.10
2018-10-16T16:15:01.886Z,34.07
2018-10-16T16:17:30.595Z,27.17
2018-10-16T16:19:59.234Z,30.63
2018-10-16T16:22:28.012Z,28.60
2018-10-16T16:24:57.381Z,25.20
2018-10-16T16:27:26.085Z,26.80
2018-10-16T16:29:54.974Z,24.53
2018-10-16T16:32:23.687Z,27.97
2018-10-16T16:34:52.316Z,28.77
2018-10-16T16:37:21.004Z,26.20
2018-10-16T16:39:49.687Z,26.23
2018-10-16T16:42:18.371Z,24.47
2018-10-16T16:44:47.008Z,27.63
2018-10-16T16:47:15.691Z,27.37
2018-10-16T16:49:45.344Z,27.30
2018-10-16T16:52:14.127Z,32.40
2018-10-16T16:54:42.720Z,27.30
2018-10-16T16:57:11.390Z,24.80
2018-10-16T16:59:40.049Z,27.10
2018-10-16T17:02:08.802Z,24.13
2018-10-16T17:04:37.620Z,35.10
2018-10-16T17:07:06.234Z,27.20
2018-10-16T17:09:35.160Z,26.60
2018-10-16T17:12:03.865Z,32.03
2018-10-16T17:14:32.606Z,26.40
2018-10-16T17:17:01.329Z,26.07
2018-10-16T17:19:30.000Z,28.33
2018-10-16T17:21:58.906Z,25.53
2018-10-16T17:24:27.618Z,27.03
2018-10-16T17:26:56.256Z,23.97
2018-10-16T17:29:25.107Z,22.20
2018-10-16T17:31:53.916Z,29.07
2018-10-16T17:34:22.678Z,26.80
2018-10-16T17:36:51.526Z,27.10
2018-10-16T17:39:20.332Z,24.10
2018-10-16T17:41:49.107Z,27.23
2018-10-16T17:44:17.991Z,25.37
2018-10-16T17:46:46.939Z,26.10
2018-10-16T17:49:15.956Z,27.00
2018-10-16T17:51:44.780Z,26.53
2018-10-16T17:54:13.445Z,31.53
2018-10-16T17:56:42.101Z,32.70
2018-10-16T17:59:10.821Z,27.80
2018-10-16T18:01:39.521Z,26.63
2018-10-16T18:04:08.661Z,27.10
2018-10-16T18:06:37.535Z,27.43
2018-10-16T18:09:07.023Z,26.50
2018-10-16T18:11:35.970Z,25.40
2018-10-16T18:14:05.148Z,25.83
2018-10-16T18:16:33.911Z,25.03
2018-10-16T18:19:02.600Z,25.10
2018-10-16T18:21:31.575Z,31.43
2018-10-16T18:24:00.240Z,25.47
2018-10-16T18:26:28.987Z,29.47
2018-10-16T18:28:58.145Z,25.63
2018-10-16T18:31:27.044Z,25.07
2018-10-16T18:33:55.715Z,24.70
2018-10-16T18:36:24.844Z,32.10
2018-10-16T18:38:53.596Z,24.53
2018-10-16T18:41:22.284Z,31.40
2018-10-16T18:43:50.936Z,30.10
2018-10-16T18:46:19.575Z,28.57
2018-10-16T18:48:48.238Z,28.33
2018-10-16T18:51:16.943Z,29.70
2018-10-16T18:53:45.635Z,30.53
2018-10-16T18:56:14.348Z,30.43
2018-10-16T18:58:43.029Z,30.60
2018-10-16T19:01:11.726Z,32.50
2018-10-16T19:03:40.573Z,26.97
2018-10-16T19:06:09.196Z,31.10
2018-10-16T19:08:39.322Z,26.70
2018-10-16T19:11:07.957Z,29.47
2018-10-16T19:13:36.798Z,30.30
2018-10-16T19:16:05.775Z,30.83
2018-10-16T19:18:34.478Z,32.30
2018-10-16T19:21:03.212Z,35.23
2018-10-16T19:23:31.927Z,32.07
2018-10-16T19:26:00.803Z,32.93
2018-10-16T19:28:29.531Z,30.23
2018-10-16T19:30:59.118Z,34.47
2018-10-16T19:33:27.760Z,36.30
2018-10-16T19:35:56.493Z,33.13
2018-10-16T19:38:25.204Z,33.17
2018-10-16T19:40:54.640Z,33.17
2018-10-16T19:43:23.345Z,32.87
2018-10-16T19:45:51.984Z,32.30
2018-10-16T19:48:20.639Z,33.87
2018-10-16T19:50:49.345Z,38.63
2018-10-16T19:53:18.186Z,43.23
2018-10-16T19:55:47.325Z,44.23
2018-10-16T19:58:15.979Z,65.43
2018-10-16T20:00:44.608Z,66.40
2018-10-16T20:03:13.472Z,58.07
2018-10-16T20:05:42.107Z,60.10
2018-10-16T20:08:10.719Z,67.63
2018-10-16T20:10:39.372Z,39.63
2018-10-16T20:13:08.089Z,38.00
2018-10-16T20:15:36.829Z,36.40
2018-10-16T20:18:05.362Z,34.33
2018-10-16T20:20:34.036Z,33.93
2018-10-16T20:23:02.788Z,33.90
2018-10-16T20:25:31.473Z,33.50
2018-10-16T20:28:00.155Z,34.97
2018-10-16T20:30:28.797Z,32.80
2018-10-16T20:32:57.419Z,34.23
2018-10-16T20:35:26.428Z,32.60
2018-10-16T20:37:55.262Z,36.13
2018-10-16T20:40:24.132Z,31.77
2018-10-16T20:42:53.226Z,41.33
2018-10-16T20:45:22.371Z,36.60
2018-10-16T20:47:51.041Z,35.60
2018-10-16T20:50:20.059Z,42.17
2018-10-16T20:52:49.013Z,42.20
2018-10-16T20:55:17.990Z,49.83
2018-10-16T20:57:46.545Z,44.67
2018-10-16T21:00:17.447Z,42.53
2018-10-16T21:02:46.165Z,48.83
2018-10-16T21:05:15.096Z,41.50
2018-10-16T21:07:43.792Z,45.17
2018-10-16T21:10:12.550Z,41.87
2018-10-16T21:12:41.441Z,47.47
2018-10-16T21:15:10.695Z,44.17
2018-10-16T21:17:39.409Z,42.70
2018-10-16T21:20:08.751Z,40.67
2018-10-16T21:22:37.889Z,40.07
2018-10-16T21:25:07.248Z,43.03
2018-10-16T21:27:38.180Z,41.93
2018-10-16T21:30:08.607Z,45.10
2018-10-16T21:32:37.424Z,44.07
2018-10-16T21:35:07.292Z,48.40
2018-10-16T21:37:36.243Z,48.07
2018-10-16T21:40:05.857Z,48.50
2018-10-16T21:42:34.528Z,47.63
2018-10-16T21:45:03.325Z,47.80
2018-10-16T21:47:31.924Z,48.13
2018-10-16T21:50:01.237Z,47.57
2018-10-16T21:52:29.905Z,60.40
2018-10-16T21:54:58.645Z,44.00
2018-10-16T21:57:27.336Z,46.37
2018-10-16T21:59:56.081Z,45.43
2018-10-16T22:02:30.110Z,47.57
2018-10-16T22:04:58.801Z,45.87
2018-10-16T22:07:27.408Z,44.23
2018-10-16T22:09:56.912Z,40.63
2018-10-16T22:12:25.942Z,41.03
2018-10-16T22:14:55.527Z,46.57
2018-10-16T22:17:24.235Z,41.87
2018-10-16T22:19:52.859Z,44.43
2018-10-16T22:22:21.512Z,39.87
2018-10-16T22:24:50.127Z,45.87
2018-10-16T22:27:18.787Z,48.47
2018-10-16T22:29:47.437Z,45.73
2018-10-16T22:32:16.111Z,46.63
2018-10-16T22:34:44.756Z,43.20
2018-10-16T22:37:13.462Z,43.30
2018-10-16T22:39:42.112Z,41.73
2018-10-16T22:42:10.778Z,41.37
2018-10-16T22:44:39.487Z,48.07
2018-10-16T22:47:08.428Z,50.07
2018-10-16T22:49:37.139Z,46.00
2018-10-16T22:52:05.834Z,48.73
2018-10-16T22:54:34.943Z,47.37
2018-10-16T22:57:03.816Z,48.20
2018-10-16T22:59:32.454Z,47.90
2018-10-16T23:02:01.103Z,49.33
2018-10-16T23:04:29.735Z,53.67
2018-10-16T23:06:59.009Z,52.40
2018-10-16T23:09:27.753Z,48.83
2018-10-16T23:11:56.352Z,47.13
2018-10-16T23:14:24.992Z,48.10
2018-10-16T23:16:53.689Z,47.83
2018-10-16T23:19:22.912Z,53.80
2018-10-16T23:21:51.598Z,48.80
2018-10-16T23:24:20.252Z,51.47
2018-10-16T23:26:48.886Z,49.10
2018-10-16T23:29:17.512Z,47.57
2018-10-16T23:31:46.263Z,55.83
2018-10-16T23:34:14.928Z,46.93
2018-10-16T23:36:43.564Z,51.23
2018-10-16T23:39:14.272Z,51.57
2018-10-16T23:41:43.495Z,52.07
2018-10-16T23:44:12.810Z,57.17
2018-10-16T23:46:41.424Z,55.67
2018-10-16T23:49:10.556Z,56.37
2018-10-16T23:51:39.208Z,56.77
2018-10-16T23:54:07.872Z,60.47
2018-10-16T23:56:36.543Z,55.40
2018-10-16T23:59:05.365Z,54.13
